Latest Coastal Weather Observations for Portland Airport

IDS60701

Issued at 9:02 am CDT Tuesday 27 January 2015 (issued every 10 minutes, with the page automatically refreshed every 10 minutes)

About coastal observations | Map of coastal stations | Coastal observations for SA | Marine services | Other Formats
Station Details ID: 090171 Name: CASHMORE AIRPORT Lat: -38.31 Lon: 141.47 Height: 80.9 m
Data from the previous 72 hours. | See also: Recent months at Portland Airport
Date/Time
CDT
Temp

°C
Wind Pressure Rain
since 9am
mm
Weather Cloud Vis
km
Sea
Height
m
Swell
Dir
 
Speed
knots
Gust
knots
hPa Trend Height
m
Period
s
Dir
27/09:00am 13.9 S 6 9 1019.6 - 0.0 - Partly cloudy 10 - - - -
27/08:30am 13.8 S 7 11 1019.4 - 0.0 - Cloudy 10 - - - -
27/08:00am 14.0 S 9 13 1019.1 - 0.0 - Cloudy 10 - - - -
27/07:30am 13.8 S 7 10 1018.7 - 0.0 - Partly cloudy 10 - - - -
27/07:00am 13.1 S 5 7 1018.4 - 0.0 - Partly cloudy 10 - - - -
27/06:30am 12.8 S 6 8 1018.2 - 0.0 - Partly cloudy 10 - - - -
27/06:00am 11.6 S 4 7 1017.9 - 0.0 - Partly cloudy 10 - - - -
27/05:00am 6.7 CALM 0 0 1017.8 - 0.0 - - 10 - - - -
27/04:30am 6.0 CALM 0 0 1017.8 - 0.0 - - 10 - - - -
27/04:00am 7.1 SSW 1 4 1017.9 - 0.0 - Partly cloudy 10 - - - -
27/03:30am 5.6 CALM 0 0 1018.1 - 0.0 - Partly cloudy 10 - - - -
27/03:00am 5.5 CALM 0 0 1018.3 - 0.0 - - 10 - - - -
27/02:30am 6.2 CALM 0 0 1018.2 - 0.0 - - 10 - - - -
27/02:00am 6.2 CALM 0 0 1018.3 - 0.0 - - 10 - - - -
27/01:30am 6.2 SSW 1 3 1018.4 - 0.0 - - 10 - - - -
27/01:00am 6.4 CALM 0 0 1018.5 - 0.0 - - 10 - - - -
27/12:30am 6.8 CALM 0 0 1018.7 - 0.0 - - 10 - - - -
27/12:00am 6.9 CALM 0 0 1018.9 - 0.0 - Partly cloudy 10 - - - -
 
Date/Time
CDT
Temp

°C
Wind Pressure Rain
since 9am
mm
Weather Cloud Vis
km
Sea
Height
m
Swell
Dir
 
Speed
knots
Gust
knots
hPa Trend Height
m
Period
s
Dir
26/11:30pm 6.9 CALM 0 0 1019.0 - 0.0 - - 10 - - - -
26/11:00pm 7.0 CALM 0 3 1019.2 - 0.0 - - 10 - - - -
26/10:30pm 8.1 CALM 0 0 1019.4 - 0.0 - - 10 - - - -
26/10:00pm 9.0 CALM 0 0 1019.5 - 0.0 - - 10 - - - -
26/09:30pm 10.4 CALM 0 0 1019.5 - 0.0 - - 10 - - - -
26/09:00pm 12.3 S 2 4 1019.3 - 0.0 - - 10 - - - -
26/08:30pm 13.2 SSE 3 5 1019.1 - 0.0 - Mostly clear 10 - - - -
26/08:00pm 14.3 SSE 5 11 1018.8 - 0.0 - Partly cloudy 10 - - - -
26/07:30pm 14.9 S 7 10 1018.6 - 0.0 - Partly cloudy 10 - - - -
26/07:00pm 15.4 S 9 13 1018.3 - 0.0 - Partly cloudy 10 - - - -
26/06:30pm 15.5 S 9 15 1018.1 - 0.0 - Partly cloudy 10 - - - -
26/06:00pm 15.6 S 9 15 1018.1 - 0.0 - Partly cloudy 10 - - - -
26/05:30pm 16.3 SSE 9 12 1017.9 - 0.0 - Cloudy 10 - - - -
26/05:00pm 15.4 S 8 13 1018.1 - 0.0 - Cloudy 10 - - - -
26/04:30pm 15.2 S 9 13 1018.2 - 0.0 - Partly cloudy 10 - - - -
26/04:00pm 17.1 S 11 16 1018.2 - 0.0 - Partly cloudy 10 - - - -
26/03:30pm 15.9 S 9 14 1018.2 - 0.0 - Partly cloudy 10 - - - -
26/03:00pm 17.4 S 10 18 1018.1 - 0.0 - Partly cloudy 10 - - - -
26/02:30pm 16.7 S 9 15 1018.2 - 0.0 - Cloudy 10 - - - -
26/02:00pm 15.8 S 10 14 1018.2 - 0.0 - Partly cloudy 10 - - - -
26/01:30pm 16.3 S 10 15 1018.3 - 0.0 - Partly cloudy 10 - - - -
26/01:00pm 16.9 SSW 9 16 1018.4 - 0.0 - Partly cloudy 10 - - - -
26/12:30pm 15.8 S 9 14 1018.5 - 0.0 - Partly cloudy 10 - - - -
26/12:00pm 15.3 S 9 14 1018.6 - 0.0 - Partly cloudy 10 - - - -
26/11:30am 15.8 S 8 12 1018.6 - 0.0 - Cloudy 10 - - - -
26/11:00am 15.6 S 8 13 1018.7 - 0.0 - Partly cloudy 10 - - - -
26/10:30am 16.3 S 7 11 1018.6 - 0.0 - Partly cloudy 10 - - - -
26/10:00am 15.6 S 7 11 1018.6 - 0.0 - - 10 - - - -
26/09:30am 15.4 S 5 9 1018.4 - 0.0 - Partly cloudy 10 - - - -
26/09:00am 13.9 WSW 4 8 1018.2 - 0.0 - Partly cloudy 10 - - - -
26/08:30am 12.7 SSW 3 4 1018.1 - 0.6 Recent precip. Cloudy 10 - - - -
26/08:00am 13.2 SSW 5 7 1017.5 - 0.4 - Partly cloudy 10 - - - -
26/07:30am 11.5 SSW 3 4 1017.2 - 0.2 - Partly cloudy 10 - - - -
26/07:00am 8.1 SSW 3 4 1016.8 - 0.2 - Partly cloudy 10 - - - -
26/06:30am 5.6 CALM 0 0 1016.5 - 0.2 - Partly cloudy 10 - - - -
26/06:00am 6.2 CALM 0 2 1016.2 - 0.2 - - 10 - - - -
26/05:30am 6.9 SSW 3 4 1015.8 - 0.2 - - 10 - - - -
26/05:00am 7.4 SSW 4 4 1015.4 - 0.2 - - 10 - - - -
26/04:30am 7.5 SSW 4 5 1015.1 - 0.2 - Partly cloudy 10 - - - -
26/04:00am 9.8 SSW 4 5 1015.0 - 0.2 - Partly cloudy 10 - - - -
26/03:30am 8.9 SSW 4 6 1015.0 - 0.2 - - 10 - - - -
26/03:00am 8.5 SSW 4 5 1014.9 - 0.2 - - 10 - - - -
26/02:30am 10.3 SSW 5 6 1014.8 - 0.2 - Mostly clear 10 - - - -
26/02:00am 10.7 SW 5 6 1014.8 - 0.2 - Partly cloudy 10 - - - -
26/01:30am 11.2 SW 6 8 1014.6 - 0.2 - Partly cloudy 10 - - - -
26/01:00am 11.0 SW 6 8 1014.6 - 0.2 - - 10 - - - -
26/12:30am 10.7 SW 5 7 1014.5 - 0.2 - Partly cloudy 10 - - - -
26/12:00am 11.8 SSW 5 7 1014.5 - 0.2 - Partly cloudy 10 - - - -
 
Date/Time
CDT
Temp

°C
Wind Pressure Rain
since 9am
mm
Weather Cloud Vis
km
Sea
Height
m
Swell
Dir
 
Speed
knots
Gust
knots
hPa Trend Height
m
Period
s
Dir
25/11:30pm 11.4 SW 5 6 1014.5 - 0.2 - Cloudy 10 - - - -
25/11:00pm 11.4 SW 6 8 1014.4 - 0.2 - Partly cloudy 10 - - - -
25/10:30pm 12.4 WSW 6 10 1014.4 - 0.2 - Partly cloudy 10 - - - -
25/10:00pm 11.7 SW 6 9 1014.2 - 0.2 - Partly cloudy 10 - - - -
25/09:30pm 12.2 SW 7 11 1013.9 - 0.2 - Partly cloudy 10 - - - -
25/09:00pm 12.4 SW 7 11 1013.6 - 0.2 - Partly cloudy 10 - - - -
25/08:30pm 12.9 SW 8 11 1013.4 - 0.2 - Mostly cloudy 10 - - - -
25/08:00pm 13.8 WSW 10 14 1013.2 - 0.2 - Partly cloudy 10 - - - -
25/07:30pm 13.9 WSW 12 17 1013.0 - 0.2 - Partly cloudy 10 - - - -
25/07:00pm 14.9 WSW 13 21 1012.7 - 0.2 - Partly cloudy 10 - - - -
25/06:30pm 15.0 WSW 13 19 1012.4 - 0.2 - Partly cloudy 10 - - - -
25/06:00pm 15.6 WSW 15 21 1012.3 - 0.2 - Partly cloudy 10 - - - -
25/05:30pm 15.1 WSW 15 21 1012.2 - 0.2 - Cloudy 10 - - - -
25/05:00pm 16.5 WSW 16 24 1012.0 - 0.2 - Partly cloudy 10 - - - -
25/04:30pm 16.2 WSW 18 25 1011.9 - 0.2 - Partly cloudy 10 - - - -
25/04:09pm 15.6 W 17 27 1011.7 - 0.2 - Partly cloudy 10 - - - -
25/04:00pm 16.4 W 17 23 1011.5 - 0.2 - Partly cloudy 10 - - - -
25/03:30pm 16.6 W 17 24 1011.5 - 0.2 - Partly cloudy 10 - - - -
25/03:00pm 13.1 W 16 23 1011.8 - 0.2 - Partly cloudy 10 - - - -
25/02:30pm 17.2 WSW 19 25 1011.4 - 0.0 - Partly cloudy 10 - - - -
25/02:00pm 16.7 WSW 23 31 1011.2 - 0.0 - Partly cloudy 10 - - - -
25/01:48pm 17.8 WSW 17 27 1011.1 - 0.0 - Partly cloudy 10 - - - -
25/01:30pm 17.1 W 18 24 1011.0 - 0.0 - Partly cloudy 10 - - - -
25/01:00pm 15.7 W 18 26 1010.9 - 0.0 - Partly cloudy 10 - - - -
25/12:30pm 16.4 WSW 18 24 1010.8 - 0.0 - Partly cloudy 10 - - - -
25/12:07pm 15.4 W 17 27 1010.7 - 0.0 - Partly cloudy 10 - - - -
25/12:00pm 15.2 W 14 19 1010.8 - 0.0 - Partly cloudy 10 - - - -
25/11:45am 14.3 W 18 28 1010.7 - 0.0 - Partly cloudy 10 - - - -
25/11:30am 13.9 W 16 23 1010.5 - 0.0 - Cloudy 10 - - - -
25/11:10am 14.6 W 19 31 1010.0 - 0.0 - Partly cloudy 10 - - - -
25/11:00am 16.1 W 20 28 1009.9 - 0.0 - Partly cloudy 10 - - - -
25/10:33am 15.3 WSW 17 27 1009.8 - 0.0 - Partly cloudy 10 - - - -
25/10:30am 14.6 WSW 18 27 1009.8 - 0.0 - Partly cloudy 10 - - - -
25/10:00am 15.4 W 17 25 1009.4 - 0.0 - Partly cloudy 10 - - - -
25/09:30am 14.6 W 18 24 1009.1 - 0.0 - Partly cloudy 10 - - - -
25/09:00am 14.6 WSW 16 24 1008.7 - 0.0 - Partly cloudy 10 - - - -
25/08:30am 14.2 WSW 17 23 1008.4 - 7.2 - Cloudy 10 - - - -
25/08:18am 14.3 WSW 16 28 1008.2 - 7.2 - Partly cloudy 10 - - - -
25/08:00am 13.2 WSW 15 23 1008.1 - 7.2 - Partly cloudy 10 - - - -
25/07:30am 13.8 WSW 13 18 1007.4 - 7.2 - Partly cloudy 10 - - - -
25/07:00am 13.2 WSW 14 20 1006.9 - 7.2 - Partly cloudy 10 - - - -
25/06:30am 12.5 WSW 12 17 1006.6 - 7.2 - Partly cloudy 10 - - - -
25/06:00am 12.5 WSW 13 20 1006.4 - 7.2 - Partly cloudy 10 - - - -
25/05:30am 12.5 WSW 13 18 1006.1 - 7.2 - Cloudy 10 - - - -
25/05:00am 12.8 WSW 12 17 1005.8 - 7.2 - Partly cloudy 10 - - - -
25/04:30am 12.7 WSW 12 16 1005.7 - 7.2 - Partly cloudy 10 - - - -
25/04:00am 12.8 WSW 12 16 1005.5 - 7.2 - Partly cloudy 10 - - - -
25/03:30am 12.7 WSW 14 19 1005.5 - 7.2 - Partly cloudy 10 - - - -
25/03:00am 12.7 WSW 12 17 1005.3 - 7.2 - Partly cloudy 10 - - - -
25/02:30am 12.9 WSW 12 16 1005.3 - 7.2 - Cloudy 10 - - - -
25/02:00am 12.9 WSW 10 15 1005.1 - 7.2 - Partly cloudy 10 - - - -
25/01:30am 13.0 WSW 8 13 1005.2 - 7.2 - Partly cloudy 10 - - - -
25/01:00am 12.7 SW 9 13 1005.1 - 7.0 - Partly cloudy 10 - - - -
25/12:30am 13.1 WSW 10 14 1005.1 - 6.6 - Partly cloudy 10 - - - -
25/12:16am 13.3 WSW 11 16 1004.9 - 6.4 - Partly cloudy 9 - - - -
25/12:00am 13.8 W 9 16 1004.7 - 5.4 - Partly cloudy 6 - - - -
 
Date/Time
CDT
Temp

°C
Wind Pressure Rain
since 9am
mm
Weather Cloud Vis
km
Sea
Height
m
Swell
Dir
 
Speed
knots
Gust
knots
hPa Trend Height
m
Period
s
Dir
24/11:59pm 13.8 W 9 16 1004.7 - 5.4 - Partly cloudy 6 - - - -
24/11:54pm 13.9 W 7 10 1004.5 - 4.6 - Partly cloudy 10 - - - -
24/11:37pm 13.8 WSW 9 13 1004.6 - 4.4 - Partly cloudy 10 - - - -
24/11:30pm 13.9 WSW 11 16 1004.6 - 4.4 Rain Cloudy 8 - - - -
24/11:13pm 13.6 WSW 12 17 1004.6 - 4.0 - Partly cloudy 7 - - - -
24/11:00pm 13.9 W 12 15 1004.6 - 3.4 - Partly cloudy 6 - - - -
24/10:59pm 13.9 W 12 16 1004.6 - 3.2 - Partly cloudy 6 - - - -
24/10:50pm 13.6 W 12 18 1004.5 - 2.6 - Partly cloudy 10 - - - -
24/10:44pm 13.5 W 13 18 1004.5 - 2.6 - Partly cloudy 10 - - - -
24/10:30pm 13.6 W 12 19 1004.6 - 2.4 - Partly cloudy 5 - - - -
24/10:00pm 14.4 WNW 13 17 1004.1 - 2.0 - Partly cloudy 6 - - - -
24/09:30pm 15.1 WNW 13 19 1003.7 - 0.4 - Partly cloudy 5 - - - -
24/09:11pm 15.1 NW 11 18 1003.6 - 0.2 - Partly cloudy 6 - - - -
24/09:08pm 15.0 NW 11 14 1003.5 - 0.2 - Partly cloudy 8 - - - -
24/09:00pm 14.9 NW 12 15 1003.5 - 0.2 - Partly cloudy 10 - - - -
24/08:57pm 14.9 NW 12 16 1003.5 - 0.2 - Partly cloudy 10 - - - -
24/08:30pm 15.3 WNW 18 25 1003.4 - 0.0 - Cloudy 5 - - - -
24/08:25pm 15.8 WNW 20 29 1003.3 - 0.0 - Partly cloudy 6 - - - -
24/08:04pm 17.9 WNW 17 29 1002.8 - 0.0 - Partly cloudy 10 - - - -
24/08:00pm 18.0 WNW 17 21 1002.8 - 0.0 - Partly cloudy 10 - - - -
24/07:30pm 18.1 WNW 16 22 1002.7 - 0.0 - - 10 - - - -
24/07:00pm 19.7 WNW 19 28 1002.2 - 0.0 - - 10 - - - -
24/06:30pm 20.0 WNW 19 29 1002.2 - 0.0 - - 10 - - - -
24/06:22pm 20.0 WNW 19 29 1002.2 - 0.0 - - 10 - - - -
24/06:00pm 20.3 WNW 18 25 1002.3 - 0.0 - - 10 - - - -
24/05:38pm 20.8 W 17 28 1002.4 - 0.0 - - 10 - - - -
24/05:30pm 20.6 WNW 17 24 1002.4 - 0.0 - - 10 - - - -
24/05:00pm 20.7 WNW 19 26 1002.6 - 0.0 - - 10 - - - -
24/04:30pm 20.9 W 18 25 1003.0 - 0.0 - - 10 - - - -
24/04:09pm 22.5 WNW 18 28 1002.9 - 0.0 - Partly cloudy 10 - - - -
24/04:00pm 23.1 WNW 18 27 1003.1 - 0.0 - Partly cloudy 10 - - - -
24/03:30pm 21.0 WNW 18 26 1003.5 - 0.0 - Partly cloudy 10 - - - -
24/03:00pm 20.6 WNW 19 29 1003.6 - 0.0 - Partly cloudy 10 - - - -
24/02:59pm 21.1 WNW 19 29 1003.7 - 0.0 - Partly cloudy 10 - - - -
24/02:30pm 20.6 WNW 19 27 1003.8 - 0.0 - Partly cloudy 10 - - - -
24/02:00pm 20.5 WNW 17 25 1003.8 - 0.0 - Partly cloudy 10 - - - -
24/01:53pm 19.7 WNW 17 27 1004.1 - 0.0 - Partly cloudy 10 - - - -
24/01:30pm 18.7 W 21 27 1004.3 - 0.0 - Partly cloudy 10 - - - -
24/01:00pm 20.5 W 18 24 1004.5 - 0.0 - Partly cloudy 10 - - - -
24/12:30pm 21.0 W 17 23 1004.5 - 0.0 - Partly cloudy 10 - - - -
24/12:00pm 21.3 W 15 21 1004.5 - 0.0 - Partly cloudy 10 - - - -
24/11:30am 21.3 NNW 12 18 1004.7 - 0.0 - Mostly clear 10 - - - -
24/11:00am 19.9 NNW 10 16 1004.9 - 0.0 - - 10 - - - -
24/10:30am 19.2 NW 10 17 1005.5 - 0.0 - - 10 - - - -
24/10:00am 18.4 NNW 10 13 1005.6 - 0.0 - - 10 - - - -
24/09:30am 17.4 NNW 9 13 1006.0 - 0.0 - - 10 - - - -
24/09:00am 16.2 N 9 13 1006.1 - 0.0 - - 10 - - - -

Other Formats:

Comma delimited format used in spreadsheet applications
http://www.bom.gov.au/fwo/IDS60701/IDS60701.94828.axf

JavaScript Object Notation format (JSON) in row-major order
http://www.bom.gov.au/fwo/IDS60701/IDS60701.94828.json